Accueil
METAR-TAF:

METAR-TAF

Aéroports :

Plate-forme pétrolière

Snorre B, Norvège

latitude: 61-32N, longitude: 2-12E, altitude: 90 m

Observation

Le bulletin a été fait il y a 33 minutes, à 15:50 UTC
Vent 19 kt de nord/nord-est
Température 6°C
Humidité 65%
Pression 1016 hPa
Visibilité 10 km ou plus

METAR: ENQR 171550Z AUTO 02019KT 9999 FEW022/// 06/00 Q1016 W01/S4

Heure: 18:23 (16:23 UTC)


TAF: absent

Observations et prévisions météorologiques de plus de 4000 aéroports (messages METAR et TAF).

Les stations disponibles sont représentées par des disques jaunes et rouges sur la carte.

Passer la souris dessus pour voir le nom de la station.

Cliquer dessus pour voir les observations et prévisions météorologiques.

Pour changer de carte: cliquez sur les boutons verts avec une croix noire pour zoomer, sur le bouton vert avec un tiret pour effectuer un zoom arrière, ou sur les flèches vertes pour les cartes adjacentes.


METAR-TAF: